LTBI/ESK METAR and TAF weather

Enter ICAO airport designator
Station Type Date Time Source
LTBI METAR 2021/06/22 21:50 UTC NOAA

LTBI 222150Z 23003KT CAVOK 17/14 Q1017 NOSIG RMK RWY08 22005KT 180V250


Station Type Date Time Source
LTBI Decoded METAR 2021/06/22 21:50 UTC NOAA

Eskisehir, Turkey (LTBI) 39-47N 030-34E 785M
Jun 22, 2021 - 05:50 PM EDT / 2021.06.22 2150 UTC
Wind: from the SW (230 degrees) at 3 MPH (3 KT):0
Visibility: greater than 7 mile(s):0
Temperature: 62 F (17 C)
Dew Point: 57 F (14 C)
Relative Humidity: 82%
Pressure (altimeter): 30.03 in. Hg (1017 hPa)
ob: LTBI 222150Z 23003KT CAVOK 17/14 Q1017 NOSIG RMK RWY08 22005KT 180V250
cycle: 22

Station Type Date Time Source
LTBI TAF 2012/05/11 09:09 UTC NOAA

TAF LTBI 110740Z 1109/1121 VRB02KT 6000 -SHRA BKN030 BKN090
TEMPO 1112/1116 33015KT 4000 -TSRA FEW025CB BKN030

Example: see airport list